Time;durP1;ratioP1;P1;durP2;ratioP2;P2;SDS_P1;SDS_P2;PMS_P1;PMS_P2;Temp;Humidity;BMP_temperature;BMP_pressure;BME280_temperature;BME280_humidity;BME280_pressure;Samples;Min_cycle;Max_cycle;Signal;HPM_P1;HPM_P2
2024/01/30 00:01:42;;;;;;;20.80;14.38;;;6.00;99.90;;;;;;5073399;28;20124;-70
2024/01/30 00:04:08;;;;;;;23.08;15.65;;;6.00;99.90;;;;;;5073528;28;20067;-70
2024/01/30 00:06:34;;;;;;;25.95;15.48;;;6.10;99.90;;;;;;5073396;28;20040;-70
2024/01/30 00:08:59;;;;;;;21.48;15.57;;;6.10;99.90;;;;;;5073036;28;20038;-70
2024/01/30 00:11:28;;;;;;;22.48;15.15;;;5.90;99.90;;;;;;5072997;28;20032;-70
2024/01/30 00:13:57;;;;;;;23.50;13.65;;;6.00;99.90;;;;;;5073054;28;20032;-70
2024/01/30 00:16:24;;;;;;;23.80;15.68;;;5.90;99.90;;;;;;5072076;28;20119;-70
2024/01/30 00:18:53;;;;;;;22.55;15.45;;;5.90;99.90;;;;;;5073025;28;20047;-70
2024/01/30 00:21:19;;;;;;;27.30;15.27;;;5.90;99.90;;;;;;5072924;28;20141;-69
2024/01/30 00:23:45;;;;;;;20.80;14.65;;;5.90;99.90;;;;;;5072956;28;20127;-69
2024/01/30 00:26:11;;;;;;;24.50;15.68;;;5.80;99.90;;;;;;5072807;28;20491;-70
2024/01/30 00:28:37;;;;;;;23.08;15.52;;;5.90;99.90;;;;;;5072886;28;20179;-70
2024/01/30 00:31:04;;;;;;;23.38;16.27;;;5.90;99.90;;;;;;5072700;28;20044;-70
2024/01/30 00:33:29;;;;;;;22.17;15.07;;;5.80;99.90;;;;;;5072850;28;20040;-70
2024/01/30 00:35:55;;;;;;;24.63;15.90;;;5.80;99.90;;;;;;5072710;28;20040;-70
2024/01/30 00:38:21;;;;;;;24.15;15.75;;;5.90;99.90;;;;;;5071385;28;20051;-70
2024/01/30 00:40:46;;;;;;;23.30;15.77;;;5.80;99.90;;;;;;5072329;28;20040;-69
2024/01/30 00:43:12;;;;;;;24.30;15.60;;;5.80;99.90;;;;;;5072626;28;20562;-70
2024/01/30 00:45:37;;;;;;;24.35;16.58;;;5.90;99.90;;;;;;5072595;28;20125;-70
2024/01/30 00:48:04;;;;;;;24.38;17.33;;;5.80;99.90;;;;;;5072484;28;20414;-69
2024/01/30 00:50:29;;;;;;;23.45;16.00;;;5.80;99.90;;;;;;5072421;28;20060;-70
2024/01/30 00:52:55;;;;;;;23.73;15.55;;;5.80;99.90;;;;;;5071181;28;20564;-69
2024/01/30 00:55:21;;;;;;;23.95;15.95;;;5.70;99.90;;;;;;5072285;28;20087;-69
2024/01/30 00:57:47;;;;;;;27.13;17.35;;;5.70;99.90;;;;;;5072454;28;20076;-70
2024/01/30 01:00:15;;;;;;;25.25;16.60;;;5.80;99.90;;;;;;5072250;28;20102;-69
2024/01/30 01:02:41;;;;;;;24.20;15.20;;;5.70;99.90;;;;;;5072306;28;20076;-70
2024/01/30 01:05:07;;;;;;;28.38;17.70;;;5.80;99.90;;;;;;5072131;28;20041;-69
2024/01/30 01:07:32;;;;;;;23.48;17.30;;;5.80;99.90;;;;;;5072062;28;20094;-69
2024/01/30 01:09:58;;;;;;;24.25;16.35;;;5.90;99.90;;;;;;5071800;28;20119;-69
2024/01/30 01:12:24;;;;;;;27.98;17.52;;;5.80;99.90;;;;;;5071839;28;20044;-70
2024/01/30 01:14:49;;;;;;;25.63;16.95;;;5.70;99.90;;;;;;5072073;28;20071;-70
2024/01/30 01:17:15;;;;;;;24.15;15.48;;;5.80;99.90;;;;;;5072086;28;20078;-70
2024/01/30 01:19:40;;;;;;;23.05;15.85;;;5.60;99.90;;;;;;5071862;28;20037;-70
2024/01/30 01:22:06;;;;;;;23.55;16.40;;;5.60;99.90;;;;;;5070685;28;20036;-69
2024/01/30 01:24:32;;;;;;;21.95;15.73;;;5.60;99.90;;;;;;5071812;28;20036;-70
2024/01/30 01:26:59;;;;;;;24.52;16.55;;;5.60;99.90;;;;;;5071861;28;20033;-70
2024/01/30 01:29:28;;;;;;;29.30;17.52;;;5.70;99.90;;;;;;5071427;28;20044;-70
2024/01/30 01:31:55;;;;;;;26.83;16.80;;;5.60;99.90;;;;;;5071782;28;20036;-70
2024/01/30 01:34:22;;;;;;;25.00;16.60;;;5.50;99.90;;;;;;5071904;28;20044;-70
2024/01/30 01:36:47;;;;;;;25.27;16.58;;;5.40;99.90;;;;;;5053738;28;20044;-69
2024/01/30 01:39:13;;;;;;;24.70;16.42;;;5.50;99.90;;;;;;5070147;28;20051;-70
2024/01/30 01:41:39;;;;;;;21.67;15.77;;;5.60;99.90;;;;;;5071552;28;20040;-69
2024/01/30 01:44:05;;;;;;;22.45;15.57;;;5.50;99.90;;;;;;5071857;28;20032;-69
2024/01/30 01:46:32;;;;;;;25.20;16.13;;;5.40;99.90;;;;;;5071729;28;20032;-70
2024/01/30 01:48:59;;;;;;;26.65;16.63;;;5.50;99.90;;;;;;5071399;28;20029;-69
2024/01/30 01:51:27;;;;;;;25.60;16.17;;;5.60;99.90;;;;;;5071533;28;20111;-69
2024/01/30 01:53:55;;;;;;;24.17;15.77;;;5.60;99.90;;;;;;5071748;28;20116;-70
2024/01/30 01:56:26;;;;;;;25.38;17.35;;;5.50;99.90;;;;;;5071638;28;20086;-70
2024/01/30 01:58:55;;;;;;;29.17;17.15;;;5.50;99.90;;;;;;5071409;28;20041;-70
2024/01/30 02:01:21;;;;;;;24.52;16.02;;;5.50;99.90;;;;;;5071406;28;20037;-69
2024/01/30 02:03:47;;;;;;;23.38;16.10;;;5.40;99.90;;;;;;5071495;28;20033;-69
2024/01/30 02:06:16;;;;;;;26.00;17.52;;;5.40;99.90;;;;;;5070090;28;20503;-69
2024/01/30 02:08:42;;;;;;;23.92;16.48;;;5.30;99.90;;;;;;5071318;28;20492;-70
2024/01/30 02:11:09;;;;;;;25.35;16.05;;;5.50;99.90;;;;;;5071039;28;20111;-70
2024/01/30 02:13:35;;;;;;;26.20;16.33;;;5.50;99.90;;;;;;5068190;28;20085;-70
2024/01/30 02:16:01;;;;;;;24.67;15.88;;;5.40;99.90;;;;;;5069904;28;20454;-70
2024/01/30 02:18:27;;;;;;;25.02;15.50;;;5.30;99.90;;;;;;5071008;28;20037;-69
2024/01/30 02:20:54;;;;;;;23.45;15.63;;;5.40;99.90;;;;;;5071207;28;20170;-69
2024/01/30 02:23:20;;;;;;;23.20;15.82;;;5.50;99.90;;;;;;5071390;28;20033;-69
2024/01/30 02:25:45;;;;;;;22.08;14.75;;;5.30;99.90;;;;;;5071331;28;20032;-70
2024/01/30 02:28:12;;;;;;;22.25;15.57;;;5.40;99.90;;;;;;5071215;28;20404;-69
2024/01/30 02:30:44;;;;;;;24.40;16.52;;;5.40;99.90;;;;;;5071040;28;20037;-70
2024/01/30 02:33:10;;;;;;;24.10;17.00;;;5.30;99.90;;;;;;5071158;28;20037;-69
2024/01/30 02:35:35;;;;;;;24.27;16.00;;;5.40;99.90;;;;;;5071304;28;20492;-69
2024/01/30 02:38:01;;;;;;;28.08;16.38;;;5.40;99.90;;;;;;5071032;28;20033;-68
2024/01/30 02:40:27;;;;;;;25.48;16.08;;;5.40;99.90;;;;;;5072889;28;20090;-68
2024/01/30 02:42:52;;;;;;;24.88;16.52;;;5.50;99.90;;;;;;5074696;28;20123;-68
2024/01/30 02:45:18;;;;;;;27.77;16.67;;;5.40;99.90;;;;;;5074738;28;20385;-69
2024/01/30 02:47:44;;;;;;;25.25;16.35;;;5.50;99.90;;;;;;5074620;28;20090;-69
2024/01/30 02:50:09;;;;;;;26.00;16.30;;;5.50;99.90;;;;;;5074796;28;20136;-69
2024/01/30 02:52:35;;;;;;;23.02;15.30;;;5.60;99.90;;;;;;5073649;28;20090;-69
2024/01/30 02:55:01;;;;;;;25.17;16.17;;;5.40;99.90;;;;;;5074703;28;20408;-70
2024/01/30 02:57:28;;;;;;;23.92;16.13;;;5.50;99.90;;;;;;5074611;28;20040;-69
2024/01/30 02:59:53;;;;;;;22.23;15.48;;;5.40;99.90;;;;;;5074474;28;20044;-70
2024/01/30 03:02:19;;;;;;;23.45;15.77;;;5.40;99.90;;;;;;5074523;28;20086;-69
2024/01/30 03:04:44;;;;;;;26.67;15.23;;;5.50;99.90;;;;;;5074554;28;20036;-69
2024/01/30 03:07:10;;;;;;;25.65;16.42;;;5.60;99.90;;;;;;5075048;28;20048;-69
2024/01/30 03:09:36;;;;;;;22.92;16.27;;;5.50;99.90;;;;;;5073394;28;20377;-70
2024/01/30 03:12:03;;;;;;;28.50;15.20;;;5.50;99.90;;;;;;5073060;28;20041;-71
2024/01/30 03:14:30;;;;;;;22.95;15.68;;;5.70;99.90;;;;;;5073269;28;20054;-70
2024/01/30 03:16:56;;;;;;;28.48;16.85;;;5.50;99.90;;;;;;5073042;28;20040;-71
2024/01/30 03:19:22;;;;;;;22.45;15.68;;;5.50;99.90;;;;;;5074128;28;20036;-70
2024/01/30 03:21:47;;;;;;;22.13;15.45;;;5.50;99.90;;;;;;5074228;28;20389;-70
2024/01/30 03:24:13;;;;;;;22.92;14.95;;;5.60;99.90;;;;;;5072884;28;20082;-70
2024/01/30 03:26:38;;;;;;;24.60;16.77;;;5.60;99.90;;;;;;5074110;28;20055;-71
2024/01/30 03:29:04;;;;;;;23.23;15.18;;;5.50;99.90;;;;;;5073839;28;20115;-70
2024/01/30 03:31:30;;;;;;;21.60;14.88;;;5.50;99.90;;;;;;5073778;28;20101;-69
2024/01/30 03:33:55;;;;;;;23.77;15.63;;;5.50;99.90;;;;;;5074154;28;20036;-69
2024/01/30 03:36:21;;;;;;;21.42;14.80;;;5.50;99.90;;;;;;5074019;28;20040;-68
2024/01/30 03:38:46;;;;;;;24.00;15.75;;;5.50;99.90;;;;;;5073647;28;20047;-68
2024/01/30 03:41:12;;;;;;;25.20;16.42;;;5.40;99.90;;;;;;5073810;28;20188;-69
2024/01/30 03:43:38;;;;;;;22.25;15.43;;;5.50;99.90;;;;;;5073784;28;20496;-69
2024/01/30 03:46:04;;;;;;;20.38;15.05;;;5.40;99.90;;;;;;5073634;28;20032;-68
2024/01/30 03:48:29;;;;;;;21.63;14.13;;;5.50;99.90;;;;;;5073758;28;20032;-69
2024/01/30 03:50:55;;;;;;;21.65;14.20;;;5.40;99.90;;;;;;5073273;28;20521;-69
2024/01/30 03:53:21;;;;;;;20.30;14.38;;;5.30;99.90;;;;;;5073718;28;20072;-68
2024/01/30 03:55:47;;;;;;;21.63;14.95;;;5.50;99.90;;;;;;5073601;28;20043;-69
2024/01/30 03:58:12;;;;;;;24.58;14.75;;;5.50;99.90;;;;;;5073457;28;20423;-68
2024/01/30 04:00:38;;;;;;;28.70;15.38;;;5.40;99.90;;;;;;5073156;28;20043;-68
2024/01/30 04:03:04;;;;;;;19.20;13.85;;;5.40;99.90;;;;;;5073605;28;20044;-69
2024/01/30 04:05:29;;;;;;;23.17;15.02;;;5.30;99.90;;;;;;5072024;28;20451;-69
2024/01/30 04:07:55;;;;;;;27.45;14.57;;;5.30;99.90;;;;;;5073269;28;20033;-68
2024/01/30 04:10:21;;;;;;;23.98;15.45;;;5.30;99.90;;;;;;5073162;28;20067;-69
2024/01/30 04:12:46;;;;;;;23.63;14.23;;;5.30;99.90;;;;;;5109284;22;20549;-71
2024/01/30 04:15:13;;;;;;;23.58;15.45;;;5.40;99.90;;;;;;5095757;28;20085;-73
2024/01/30 04:17:39;;;;;;;23.63;15.80;;;5.50;99.90;;;;;;5077669;28;20086;-73
2024/01/30 04:20:05;;;;;;;20.08;14.88;;;5.30;99.90;;;;;;5094947;28;20047;-73
2024/01/30 04:22:31;;;;;;;21.13;14.40;;;5.40;99.90;;;;;;5075722;28;20521;-73
2024/01/30 04:24:57;;;;;;;24.00;14.50;;;5.50;99.90;;;;;;5094820;28;20074;-73
2024/01/30 04:27:22;;;;;;;22.65;15.07;;;5.60;99.90;;;;;;5094540;28;20054;-73
2024/01/30 04:29:48;;;;;;;25.30;15.35;;;5.40;99.90;;;;;;5096456;28;20541;-73
2024/01/30 04:32:14;;;;;;;23.48;15.98;;;5.40;99.90;;;;;;5076403;28;20673;-73
2024/01/30 04:34:40;;;;;;;25.08;15.10;;;5.60;99.90;;;;;;5094818;28;20085;-73
2024/01/30 04:37:05;;;;;;;23.67;14.52;;;5.60;99.90;;;;;;5076409;28;20032;-73
2024/01/30 04:39:33;;;;;;;23.77;14.90;;;5.70;99.90;;;;;;5094440;28;20038;-73
2024/01/30 04:41:59;;;;;;;22.27;15.05;;;5.70;99.90;;;;;;5076258;28;20044;-73
2024/01/30 04:44:25;;;;;;;21.23;14.32;;;5.70;99.90;;;;;;5075860;28;20415;-73
2024/01/30 04:46:50;;;;;;;22.58;15.82;;;5.60;99.90;;;;;;5093812;28;20110;-73
2024/01/30 04:49:16;;;;;;;24.38;14.80;;;5.80;99.90;;;;;;5095578;28;20046;-74
2024/01/30 04:51:41;;;;;;;20.60;14.18;;;5.80;99.90;;;;;;5094547;28;20035;-73
2024/01/30 04:54:17;;;;;;;21.40;14.77;;;5.90;99.90;;;;;;5095266;28;20430;-74
2024/01/30 04:56:43;;;;;;;19.60;14.23;;;5.70;99.90;;;;;;5095767;28;20036;-74
2024/01/30 04:59:08;;;;;;;23.02;14.55;;;6.00;99.90;;;;;;5093768;28;20035;-73
2024/01/30 05:01:34;;;;;;;21.80;14.25;;;5.80;99.90;;;;;;5093949;28;20392;-73
2024/01/30 05:04:00;;;;;;;25.52;13.68;;;5.90;99.90;;;;;;5075202;28;20032;-74
2024/01/30 05:06:27;;;;;;;21.83;13.63;;;5.70;99.90;;;;;;5076927;28;20056;-73
2024/01/30 05:08:53;;;;;;;21.33;13.25;;;5.90;99.90;;;;;;5060403;28;20043;-73
2024/01/30 05:11:19;;;;;;;18.88;13.30;;;5.90;99.90;;;;;;5094680;28;20036;-73
2024/01/30 05:13:44;;;;;;;23.55;14.48;;;5.70;99.90;;;;;;5093573;28;20044;-73
2024/01/30 05:16:10;;;;;;;26.05;14.93;;;6.00;99.90;;;;;;5093595;28;20125;-73
2024/01/30 05:18:36;;;;;;;20.33;13.82;;;6.10;99.90;;;;;;5093799;28;20028;-74
2024/01/30 05:21:03;;;;;;;21.75;14.88;;;6.00;99.90;;;;;;5076512;28;20039;-74
2024/01/30 05:23:29;;;;;;;20.17;14.10;;;6.30;99.90;;;;;;5075991;28;20044;-74
2024/01/30 05:25:54;;;;;;;20.85;13.65;;;6.10;99.90;;;;;;5076797;28;20126;-73
2024/01/30 05:28:20;;;;;;;26.30;15.07;;;6.30;99.90;;;;;;5094341;28;20040;-73
2024/01/30 05:30:46;;;;;;;22.45;14.02;;;6.40;99.90;;;;;;5076450;28;20039;-73
2024/01/30 05:33:12;;;;;;;22.48;13.25;;;6.50;99.90;;;;;;5076998;28;20511;-73
2024/01/30 05:35:38;;;;;;;22.58;13.90;;;6.50;99.90;;;;;;5058872;28;20079;-73
2024/01/30 05:38:04;;;;;;;23.90;14.88;;;6.30;99.90;;;;;;5075377;28;20071;-73
2024/01/30 05:40:32;;;;;;;21.90;14.40;;;6.40;99.90;;;;;;5075873;28;20545;-73
2024/01/30 05:43:00;;;;;;;21.55;13.93;;;6.30;99.90;;;;;;5093000;28;20039;-73
2024/01/30 05:45:26;;;;;;;22.85;14.00;;;6.30;99.90;;;;;;5093183;28;20103;-74
2024/01/30 05:47:52;;;;;;;22.83;14.30;;;6.30;99.90;;;;;;5074891;28;20040;-74
2024/01/30 05:50:19;;;;;;;24.25;16.48;;;6.40;99.90;;;;;;5074798;28;20115;-73
2024/01/30 05:52:45;;;;;;;21.23;14.25;;;6.50;99.90;;;;;;5094409;28;20055;-74
2024/01/30 05:55:11;;;;;;;21.60;14.32;;;6.40;99.90;;;;;;5093326;28;20036;-74
2024/01/30 05:57:37;;;;;;;22.83;13.73;;;6.50;99.90;;;;;;5075265;28;20089;-74
2024/01/30 06:00:05;;;;;;;19.83;13.05;;;6.60;99.90;;;;;;5093485;28;20123;-74
2024/01/30 06:02:31;;;;;;;20.00;13.65;;;6.30;99.90;;;;;;5059115;28;20040;-74
2024/01/30 06:04:56;;;;;;;21.83;13.50;;;6.50;99.90;;;;;;5075454;28;20492;-74
2024/01/30 06:07:22;;;;;;;21.77;13.30;;;6.40;99.90;;;;;;5076043;28;20051;-74
2024/01/30 06:09:48;;;;;;;26.38;15.63;;;6.40;99.90;;;;;;5093103;28;20036;-73
2024/01/30 06:12:13;;;;;;;23.25;13.85;;;6.50;99.90;;;;;;5075389;28;20048;-73
2024/01/30 06:14:39;;;;;;;23.20;14.75;;;6.40;99.90;;;;;;5079425;28;20035;-74
2024/01/30 06:17:05;;;;;;;24.10;13.73;;;6.40;99.90;;;;;;5097253;28;20052;-74
2024/01/30 06:19:30;;;;;;;21.10;14.98;;;6.70;99.90;;;;;;5097344;28;20086;-73
2024/01/30 06:21:57;;;;;;;22.38;14.68;;;6.50;99.90;;;;;;5080214;28;20044;-74
2024/01/30 06:24:22;;;;;;;22.98;13.32;;;6.60;99.90;;;;;;5078789;28;20043;-74
2024/01/30 06:26:48;;;;;;;22.83;14.88;;;6.60;99.90;;;;;;5078977;28;20028;-74
2024/01/30 06:29:14;;;;;;;28.95;14.63;;;6.70;99.90;;;;;;5096894;28;20624;-74
2024/01/30 06:31:43;;;;;;;21.30;13.70;;;6.60;99.90;;;;;;5080936;28;20032;-74
2024/01/30 06:34:12;;;;;;;21.63;14.32;;;6.70;99.90;;;;;;5097171;28;20115;-74
2024/01/30 06:36:38;;;;;;;20.25;13.77;;;6.70;99.90;;;;;;5097236;28;20039;-74
2024/01/30 06:39:04;;;;;;;21.00;13.45;;;6.80;99.90;;;;;;5096789;28;20043;-73
2024/01/30 06:41:30;;;;;;;21.70;14.52;;;6.80;99.90;;;;;;5096967;28;20507;-74
2024/01/30 06:43:56;;;;;;;20.40;13.02;;;6.80;99.90;;;;;;5098029;28;20036;-74
2024/01/30 06:46:22;;;;;;;29.73;14.23;;;6.90;99.90;;;;;;5099103;28;20075;-73
2024/01/30 06:48:47;;;;;;;20.40;13.45;;;6.80;99.90;;;;;;5080057;28;20036;-74
2024/01/30 06:51:13;;;;;;;24.30;13.85;;;7.00;99.90;;;;;;5079874;28;20040;-74
2024/01/30 06:53:39;;;;;;;21.23;14.98;;;6.90;99.90;;;;;;5080351;28;20059;-74
2024/01/30 06:56:05;;;;;;;21.80;15.25;;;6.90;99.90;;;;;;5097140;28;20039;-74
2024/01/30 06:58:31;;;;;;;23.10;14.30;;;7.00;99.90;;;;;;5078477;28;20468;-74
2024/01/30 07:00:56;;;;;;;21.40;13.43;;;6.90;99.90;;;;;;5079261;28;20032;-72
2024/01/30 07:03:22;;;;;;;23.45;13.73;;;7.10;99.90;;;;;;5096335;28;20079;-72
2024/01/30 07:05:48;;;;;;;20.80;13.65;;;7.10;99.90;;;;;;5096542;28;20036;-72
2024/01/30 07:08:17;;;;;;;24.10;14.32;;;6.90;99.90;;;;;;5078040;28;20040;-72
2024/01/30 07:10:43;;;;;;;25.38;14.73;;;7.00;99.90;;;;;;5079520;28;20028;-72
2024/01/30 07:13:10;;;;;;;21.38;13.25;;;7.00;99.90;;;;;;5079141;28;20052;-72
2024/01/30 07:15:36;;;;;;;27.55;13.48;;;6.90;99.90;;;;;;5078630;28;20044;-72
2024/01/30 07:18:02;;;;;;;20.50;13.55;;;7.10;99.90;;;;;;5062542;28;20103;-72
2024/01/30 07:20:30;;;;;;;18.88;13.13;;;7.00;99.90;;;;;;5095951;28;20044;-72
2024/01/30 07:22:56;;;;;;;20.15;13.57;;;6.90;99.90;;;;;;5079021;28;20062;-72
2024/01/30 07:25:21;;;;;;;20.30;13.00;;;6.90;99.90;;;;;;5078453;28;20032;-72
2024/01/30 07:27:47;;;;;;;25.60;13.43;;;7.00;99.90;;;;;;5096464;28;20036;-72
2024/01/30 07:30:13;;;;;;;22.25;14.02;;;7.00;99.90;;;;;;5096344;28;20039;-72
2024/01/30 07:32:38;;;;;;;20.38;13.75;;;7.00;99.90;;;;;;5097237;28;20043;-72
2024/01/30 07:35:04;;;;;;;23.65;13.88;;;7.00;99.90;;;;;;5077876;28;20047;-72
2024/01/30 07:37:30;;;;;;;23.17;14.35;;;7.20;99.90;;;;;;5077498;28;20040;-72
2024/01/30 07:39:55;;;;;;;21.27;13.27;;;7.10;99.90;;;;;;5078153;28;20081;-72
2024/01/30 07:42:21;;;;;;;24.10;14.57;;;7.20;99.90;;;;;;5077699;28;20036;-72
2024/01/30 07:44:46;;;;;;;19.20;13.05;;;7.00;99.90;;;;;;5077410;28;20043;-73
2024/01/30 07:47:12;;;;;;;18.88;14.00;;;7.10;99.90;;;;;;5095577;28;20046;-73
2024/01/30 07:49:41;;;;;;;24.77;14.80;;;7.00;99.90;;;;;;5096625;28;20077;-72
2024/01/30 07:52:07;;;;;;;19.92;13.27;;;7.10;99.90;;;;;;5078031;28;20040;-73
2024/01/30 07:54:47;;;;;;;22.70;13.80;;;7.10;99.90;;;;;;5076988;28;20040;-73
2024/01/30 07:57:13;;;;;;;22.02;13.77;;;7.10;99.90;;;;;;5095210;28;20464;-72
2024/01/30 07:59:39;;;;;;;20.83;13.88;;;7.00;99.90;;;;;;5077735;28;20117;-73
2024/01/30 08:02:04;;;;;;;19.80;14.07;;;7.10;99.90;;;;;;5096700;28;20040;-73
2024/01/30 08:04:30;;;;;;;24.00;14.32;;;7.20;99.90;;;;;;5061053;28;20047;-73
2024/01/30 08:06:56;;;;;;;25.52;15.07;;;7.30;99.90;;;;;;5096072;28;20093;-73
2024/01/30 08:09:21;;;;;;;19.02;13.63;;;7.30;99.90;;;;;;5098413;28;20044;-74
2024/01/30 08:11:47;;;;;;;21.80;13.77;;;7.20;99.90;;;;;;5078667;28;20052;-73
2024/01/30 08:14:13;;;;;;;22.70;13.07;;;7.30;99.90;;;;;;5079363;28;20035;-74
2024/01/30 08:16:39;;;;;;;23.40;14.32;;;7.30;99.90;;;;;;5096062;28;20554;-73
2024/01/30 08:19:05;;;;;;;21.58;13.75;;;7.30;99.90;;;;;;5096213;28;20075;-73
2024/01/30 08:21:35;;;;;;;21.00;13.88;;;7.30;99.90;;;;;;5078407;28;20075;-73
2024/01/30 08:24:04;;;;;;;19.50;13.23;;;7.10;99.90;;;;;;5094423;28;20036;-73
2024/01/30 08:26:31;;;;;;;25.60;14.48;;;7.40;99.90;;;;;;5077062;28;20036;-73
2024/01/30 08:28:56;;;;;;;19.55;13.82;;;7.30;99.90;;;;;;5076785;28;20036;-73
2024/01/30 08:31:22;;;;;;;21.08;13.00;;;7.40;99.90;;;;;;5095190;28;20042;-74
2024/01/30 08:33:48;;;;;;;20.80;13.07;;;7.50;99.90;;;;;;5094009;28;20051;-73
2024/01/30 08:36:14;;;;;;;21.00;13.70;;;7.50;99.90;;;;;;5095917;28;20043;-73
2024/01/30 08:38:39;;;;;;;23.15;13.43;;;7.50;99.90;;;;;;5075431;28;20040;-73
2024/01/30 08:41:05;;;;;;;20.27;13.50;;;7.50;99.90;;;;;;5077185;28;20043;-73
2024/01/30 08:43:30;;;;;;;24.58;13.23;;;7.40;99.90;;;;;;5060022;28;20044;-73
2024/01/30 08:45:59;;;;;;;23.08;13.90;;;7.50;99.90;;;;;;5056524;28;20037;-73
2024/01/30 08:48:25;;;;;;;23.17;13.68;;;7.70;99.90;;;;;;5072003;28;20048;-73
2024/01/30 08:50:51;;;;;;;24.45;14.07;;;7.70;99.90;;;;;;5094009;28;20031;-74
2024/01/30 08:53:16;;;;;;;25.13;13.63;;;7.70;99.90;;;;;;5094618;28;20040;-73
2024/01/30 08:55:42;;;;;;;23.83;13.35;;;7.60;99.90;;;;;;5094697;28;20507;-73
2024/01/30 08:58:13;;;;;;;21.20;14.07;;;7.80;99.90;;;;;;5153434;27;1253460;-74
2024/01/30 09:00:39;;;;;;;25.58;13.63;;;7.70;99.90;;;;;;5173089;27;20476;-74
2024/01/30 09:03:04;;;;;;;20.35;13.15;;;7.80;99.90;;;;;;5150575;27;20092;-74
2024/01/30 09:05:30;;;;;;;23.60;14.18;;;7.90;99.90;;;;;;5163301;27;20668;-74
2024/01/30 09:07:56;;;;;;;21.98;13.13;;;8.00;99.90;;;;;;5142274;27;20027;-74
2024/01/30 09:10:21;;;;;;;21.05;12.95;;;8.00;99.90;;;;;;5135889;27;20062;-73
2024/01/30 09:12:47;;;;;;;20.00;13.23;;;8.10;99.90;;;;;;5169619;27;20042;-72
2024/01/30 09:15:13;;;;;;;20.58;12.48;;;8.20;99.90;;;;;;5155110;27;20090;-73
2024/01/30 09:17:39;;;;;;;24.65;12.20;;;8.00;99.90;;;;;;5173658;27;20199;-73
2024/01/30 09:20:05;;;;;;;25.40;12.07;;;8.20;99.90;;;;;;5160650;27;20042;-73
2024/01/30 09:22:31;;;;;;;23.00;13.10;;;8.30;99.90;;;;;;5140461;27;20034;-73
2024/01/30 09:24:57;;;;;;;19.95;13.13;;;8.40;99.90;;;;;;5145667;27;20309;-74
2024/01/30 09:27:23;;;;;;;21.77;11.93;;;8.40;99.90;;;;;;5162565;27;20038;-74
2024/01/30 09:29:48;;;;;;;17.83;12.00;;;8.40;99.90;;;;;;5163579;27;20083;-73
2024/01/30 09:32:14;;;;;;;19.33;12.48;;;8.40;99.90;;;;;;5162693;27;20099;-73
2024/01/30 09:34:40;;;;;;;19.70;11.90;;;8.40;99.90;;;;;;5145449;27;20038;-73
2024/01/30 09:37:05;;;;;;;21.60;12.55;;;8.60;99.90;;;;;;5164918;27;20043;-73
2024/01/30 09:39:31;;;;;;;19.85;11.70;;;8.50;99.90;;;;;;5161014;27;20023;-74
2024/01/30 09:42:15;;;;;;;22.70;11.93;;;8.70;99.90;;;;;;5164954;27;20066;-73
2024/01/30 09:44:43;;;;;;;41.72;24.42;;;8.70;99.90;;;;;;5166582;27;20512;-73
2024/01/30 09:47:10;;;;;;;20.58;12.15;;;8.80;99.90;;;;;;5173730;27;20166;-74
2024/01/30 09:49:36;;;;;;;20.83;12.23;;;8.80;99.90;;;;;;5145273;27;20524;-74
2024/01/30 09:52:03;;;;;;;20.00;12.68;;;8.90;99.90;;;;;;5163502;27;20034;-73
2024/01/30 09:54:32;;;;;;;20.80;12.00;;;9.00;99.90;;;;;;5165569;27;20035;-73
2024/01/30 09:56:58;;;;;;;21.10;11.68;;;9.00;99.90;;;;;;5161679;27;20437;-74
2024/01/30 09:59:24;;;;;;;22.70;13.02;;;9.20;99.90;;;;;;5143518;27;20057;-73
2024/01/30 10:01:51;;;;;;;18.60;11.77;;;9.20;99.90;;;;;;5136411;27;20458;-73
2024/01/30 10:04:16;;;;;;;20.13;10.70;;;9.40;99.90;;;;;;5172823;27;20073;-73
2024/01/30 10:06:42;;;;;;;21.90;12.70;;;9.40;99.90;;;;;;5164605;27;20402;-74
2024/01/30 10:09:11;;;;;;;22.23;11.38;;;9.60;99.90;;;;;;5138551;27;20049;-73
2024/01/30 10:11:36;;;;;;;19.50;12.50;;;9.60;99.90;;;;;;5157988;27;20042;-74
2024/01/30 10:14:02;;;;;;;21.70;12.65;;;9.70;99.90;;;;;;5159272;27;20042;-73
2024/01/30 10:16:28;;;;;;;17.17;12.57;;;9.60;99.90;;;;;;5157705;27;20039;-73
2024/01/30 10:18:54;;;;;;;19.92;11.90;;;9.70;99.90;;;;;;5140077;27;20037;-73
2024/01/30 10:21:19;;;;;;;22.30;12.88;;;9.70;99.90;;;;;;5157961;27;20035;-73
2024/01/30 10:23:45;;;;;;;15.85;11.20;;;9.60;99.90;;;;;;5155378;27;20037;-73
2024/01/30 10:26:11;;;;;;;16.20;11.52;;;9.60;99.90;;;;;;5145907;27;20039;-73
2024/01/30 10:28:36;;;;;;;19.95;11.80;;;9.60;99.90;;;;;;5130334;27;20058;-74
2024/01/30 10:31:05;;;;;;;17.30;10.77;;;9.70;99.90;;;;;;5129316;27;20038;-74
2024/01/30 10:33:31;;;;;;;18.15;12.02;;;9.70;99.90;;;;;;5147811;27;20030;-74
2024/01/30 10:36:01;;;;;;;19.20;11.43;;;9.80;99.90;;;;;;5128951;27;20555;-73
2024/01/30 10:38:29;;;;;;;19.63;11.57;;;9.80;99.90;;;;;;5145851;27;20066;-73
2024/01/30 10:41:02;;;;;;;18.00;12.27;;;9.70;99.90;;;;;;5146372;27;20490;-73
2024/01/30 10:43:33;;;;;;;16.33;11.37;;;9.80;99.90;;;;;;5140114;27;20054;-73
2024/01/30 10:46:17;;;;;;;16.60;11.23;;;9.80;99.90;;;;;;5138761;27;20755;-73
2024/01/30 10:48:46;;;;;;;19.42;12.13;;;9.90;99.90;;;;;;5138014;27;20035;-73
2024/01/30 10:51:14;;;;;;;19.75;11.93;;;9.70;99.90;;;;;;5138423;27;20039;-74
2024/01/30 10:53:41;;;;;;;16.45;11.75;;;9.80;99.90;;;;;;5118867;27;20035;-74
2024/01/30 10:56:08;;;;;;;23.20;12.52;;;9.80;99.90;;;;;;5118049;27;20122;-74
2024/01/30 10:58:33;;;;;;;17.58;11.85;;;9.70;99.90;;;;;;5118260;27;20046;-74
2024/01/30 11:00:59;;;;;;;20.95;11.90;;;9.80;99.90;;;;;;5136202;27;20043;-73
2024/01/30 11:03:25;;;;;;;20.30;11.43;;;9.80;99.90;;;;;;5123246;27;20039;-74
2024/01/30 11:05:51;;;;;;;16.48;11.40;;;9.80;99.90;;;;;;5145830;27;20031;-74
2024/01/30 11:08:29;;;;;;;26.52;13.18;;;9.80;99.90;;;;;;5148022;27;20420;-73
2024/01/30 11:10:57;;;;;;;18.25;11.32;;;9.90;99.90;;;;;;5147316;27;20034;-74
2024/01/30 11:13:27;;;;;;;17.40;11.93;;;9.90;99.90;;;;;;5127096;27;20570;-74
2024/01/30 11:15:53;;;;;;;18.08;11.85;;;9.90;99.90;;;;;;5146538;27;20023;-73
2024/01/30 11:18:25;;;;;;;23.45;11.90;;;9.90;99.90;;;;;;5147775;27;20031;-74
2024/01/30 11:20:51;;;;;;;20.48;12.43;;;9.90;99.90;;;;;;5126876;27;20048;-74
2024/01/30 11:23:17;;;;;;;17.55;11.48;;;9.90;99.90;;;;;;5145492;27;20035;-73
2024/01/30 11:25:46;;;;;;;23.27;12.32;;;10.00;99.90;;;;;;5145541;27;20042;-74
2024/01/30 11:28:16;;;;;;;19.45;11.93;;;10.00;99.90;;;;;;5146211;27;20039;-73
2024/01/30 11:30:42;;;;;;;18.02;11.70;;;10.10;99.90;;;;;;5126059;27;20051;-73
2024/01/30 11:33:09;;;;;;;17.35;11.55;;;10.10;99.90;;;;;;5145387;27;20065;-74
2024/01/30 11:35:36;;;;;;;18.55;12.65;;;10.10;99.90;;;;;;5132782;27;20138;-74
2024/01/30 11:38:02;;;;;;;19.95;12.43;;;10.10;99.90;;;;;;5137333;27;20038;-73
2024/01/30 11:40:29;;;;;;;23.30;12.70;;;10.10;99.90;;;;;;5137502;27;20074;-73
2024/01/30 11:42:56;;;;;;;21.08;12.60;;;10.20;99.90;;;;;;5137771;27;20048;-73
2024/01/30 11:45:22;;;;;;;23.77;13.90;;;10.20;99.90;;;;;;5137195;27;20080;-74
2024/01/30 11:47:47;;;;;;;19.13;13.02;;;10.10;99.90;;;;;;5138198;27;20042;-75
2024/01/30 11:50:14;;;;;;;19.33;12.30;;;10.10;99.90;;;;;;5136688;27;20125;-75
2024/01/30 11:52:41;;;;;;;20.05;11.55;;;10.10;99.90;;;;;;5155723;27;20489;-75
2024/01/30 11:55:08;;;;;;;21.45;12.98;;;10.10;99.90;;;;;;5137330;27;20043;-75
2024/01/30 11:57:35;;;;;;;23.42;11.32;;;10.10;99.90;;;;;;5136973;27;20061;-75
2024/01/30 12:00:04;;;;;;;15.43;9.15;;;10.20;99.90;;;;;;5138247;27;20061;-75
2024/01/30 12:02:30;;;;;;;17.48;9.02;;;10.20;99.90;;;;;;5156723;27;20409;-74
2024/01/30 12:04:55;;;;;;;17.30;8.07;;;10.20;99.90;;;;;;5157481;27;20034;-75
2024/01/30 12:07:21;;;;;;;18.00;8.35;;;10.10;99.90;;;;;;5132124;27;20039;-75
2024/01/30 12:09:54;;;;;;;14.73;7.30;;;10.10;99.90;;;;;;5119507;27;20039;-74
2024/01/30 12:12:23;;;;;;;11.85;6.85;;;10.10;99.90;;;;;;5118135;27;20047;-75
2024/01/30 12:14:49;;;;;;;14.07;6.15;;;10.00;99.90;;;;;;5136981;27;20039;-75
2024/01/30 12:17:30;;;;;;;14.23;5.03;;;10.00;99.90;;;;;;5116889;27;20043;-75
2024/01/30 12:20:09;;;;;;;11.65;3.92;;;10.00;99.90;;;;;;5135126;27;20065;-75
2024/01/30 12:22:46;;;;;;;17.52;5.68;;;9.90;99.90;;;;;;5142931;27;20033;-75
2024/01/30 12:25:16;;;;;;;8.38;4.10;;;9.90;99.90;;;;;;5108655;27;20047;-75
2024/01/30 12:27:43;;;;;;;13.15;3.85;;;9.80;99.90;;;;;;5145557;27;20039;-74
2024/01/30 12:30:11;;;;;;;8.25;3.25;;;9.90;99.90;;;;;;5128872;27;20383;-75
2024/01/30 12:32:44;;;;;;;13.85;3.33;;;9.90;99.90;;;;;;5146543;27;20130;-75